Time;durP1;ratioP1;P1;durP2;ratioP2;P2;SDS_P1;SDS_P2;PMS_P1;PMS_P2;Temp;Humidity;BMP_temperature;BMP_pressure;BME280_temperature;BME280_humidity;BME280_pressure;Samples;Min_cycle;Max_cycle;Signal;HPM_P1;HPM_P2
2024/02/18 00:01:35;;;;;;;19.67;12.40;;;;;;;;;;4957225;28;20067;-73
2024/02/18 00:04:02;;;;;;;18.08;10.85;;;;;;;;;;4941168;29;20062;-72
2024/02/18 00:06:28;;;;;;;29.00;15.35;;;;;;;;;;4937947;29;20102;-74
2024/02/18 00:08:56;;;;;;;26.30;14.40;;;;;;;;;;4948336;28;20039;-74
2024/02/18 00:11:22;;;;;;;23.13;13.93;;;;;;;;;;4954142;28;20530;-73
2024/02/18 00:13:48;;;;;;;18.30;10.65;;;;;;;;;;4950401;28;20376;-73
2024/02/18 00:16:14;;;;;;;9.90;8.90;;;;;;;;;;4952413;29;20035;-73
2024/02/18 00:18:40;;;;;;;21.02;12.50;;;;;;;;;;4953007;29;20126;-73
2024/02/18 00:21:06;;;;;;;18.10;10.05;;;;;;;;;;4952727;28;20054;-74
2024/02/18 00:23:32;;;;;;;15.90;11.52;;;;;;;;;;4955126;29;20038;-73
2024/02/18 00:25:59;;;;;;;19.80;11.82;;;;;;;;;;4955660;29;20043;-73
2024/02/18 00:28:25;;;;;;;18.70;10.68;;;;;;;;;;4921801;29;20062;-72
2024/02/18 00:30:52;;;;;;;21.83;11.38;;;;;;;;;;4952677;29;20051;-72
2024/02/18 00:33:20;;;;;;;17.58;10.90;;;;;;;;;;4933184;29;20039;-73
2024/02/18 00:35:46;;;;;;;20.75;12.88;;;;;;;;;;4933491;29;20086;-73
2024/02/18 00:38:12;;;;;;;13.75;8.52;;;;;;;;;;4951161;29;20043;-72
2024/02/18 00:40:38;;;;;;;14.82;8.40;;;;;;;;;;4950396;29;20043;-72
2024/02/18 00:43:04;;;;;;;23.65;12.27;;;;;;;;;;4935059;29;20039;-73
2024/02/18 00:45:29;;;;;;;11.65;8.77;;;;;;;;;;4951619;29;20035;-75
2024/02/18 00:47:55;;;;;;;22.40;11.35;;;;;;;;;;4904318;29;20058;-73
2024/02/18 00:50:21;;;;;;;13.90;10.13;;;;;;;;;;4933168;29;20479;-73
2024/02/18 00:52:47;;;;;;;21.17;12.55;;;;;;;;;;4950944;29;20131;-73
2024/02/18 00:55:13;;;;;;;16.70;11.43;;;;;;;;;;4919147;29;20035;-74
2024/02/18 00:57:39;;;;;;;19.60;10.05;;;;;;;;;;4951141;28;20024;-73
2024/02/18 01:00:05;;;;;;;19.75;11.88;;;;;;;;;;4950664;29;20047;-73
2024/02/18 01:02:31;;;;;;;10.70;7.43;;;;;;;;;;4932871;29;20031;-73
2024/02/18 01:04:57;;;;;;;16.58;8.35;;;;;;;;;;4932778;29;20046;-74
2024/02/18 01:07:23;;;;;;;19.17;10.57;;;;;;;;;;4934159;29;20396;-73
2024/02/18 01:09:50;;;;;;;14.68;10.15;;;;;;;;;;4933154;29;20065;-74
2024/02/18 01:12:16;;;;;;;17.67;12.40;;;;;;;;;;4934112;29;20035;-74
2024/02/18 01:14:44;;;;;;;16.33;10.55;;;;;;;;;;4950859;28;20015;-74
2024/02/18 01:17:10;;;;;;;13.98;8.75;;;;;;;;;;4933284;29;20027;-72
2024/02/18 01:19:36;;;;;;;25.17;14.75;;;;;;;;;;4949488;29;20535;-73
2024/02/18 01:22:02;;;;;;;14.43;10.02;;;;;;;;;;4951529;29;20042;-74
2024/02/18 01:24:28;;;;;;;12.57;9.07;;;;;;;;;;4950064;29;20554;-73
2024/02/18 01:26:54;;;;;;;8.15;6.53;;;;;;;;;;4943244;29;20130;-73
2024/02/18 01:29:21;;;;;;;13.73;10.05;;;;;;;;;;4949057;29;20094;-72
2024/02/18 01:31:47;;;;;;;24.65;12.80;;;;;;;;;;4932898;29;20530;-73
2024/02/18 01:34:13;;;;;;;12.82;9.18;;;;;;;;;;4917988;29;20035;-74
2024/02/18 01:36:38;;;;;;;21.17;12.77;;;;;;;;;;4949888;28;20045;-73
2024/02/18 01:39:04;;;;;;;25.75;15.32;;;;;;;;;;4949292;29;20035;-74
2024/02/18 01:41:30;;;;;;;17.92;11.32;;;;;;;;;;4949619;28;20043;-72
2024/02/18 01:43:56;;;;;;;16.48;8.93;;;;;;;;;;4950039;29;20515;-73
2024/02/18 01:46:22;;;;;;;19.60;11.88;;;;;;;;;;4950328;29;20077;-72
2024/02/18 01:48:48;;;;;;;19.30;11.32;;;;;;;;;;4932891;29;20042;-73
2024/02/18 01:51:14;;;;;;;7.82;7.05;;;;;;;;;;4931699;29;20075;-73
2024/02/18 01:53:40;;;;;;;12.93;8.73;;;;;;;;;;4949955;29;20034;-73
2024/02/18 01:56:06;;;;;;;20.38;13.25;;;;;;;;;;4933047;29;20038;-74
2024/02/18 01:58:32;;;;;;;14.27;7.95;;;;;;;;;;4949731;28;20031;-72
2024/02/18 02:00:57;;;;;;;15.10;9.65;;;;;;;;;;4917846;29;20051;-73
2024/02/18 02:03:23;;;;;;;15.45;9.82;;;;;;;;;;4932110;29;20073;-73
2024/02/18 02:05:49;;;;;;;11.75;7.18;;;;;;;;;;4932349;29;20486;-73
2024/02/18 02:08:15;;;;;;;18.58;9.98;;;;;;;;;;4917286;29;20035;-74
2024/02/18 02:10:41;;;;;;;24.70;11.68;;;;;;;;;;4931485;28;20703;-74
2024/02/18 02:13:07;;;;;;;10.25;7.47;;;;;;;;;;4917888;29;20042;-74
2024/02/18 02:15:34;;;;;;;14.77;9.30;;;;;;;;;;4949648;29;20043;-74
2024/02/18 02:18:00;;;;;;;12.43;8.15;;;;;;;;;;4932682;29;20046;-75
2024/02/18 02:20:27;;;;;;;16.02;7.28;;;;;;;;;;4948471;29;20039;-74
2024/02/18 02:22:53;;;;;;;17.30;9.70;;;;;;;;;;4949296;29;20090;-74
2024/02/18 02:25:19;;;;;;;9.50;6.85;;;;;;;;;;4950542;29;20379;-73
2024/02/18 02:27:46;;;;;;;21.33;11.10;;;;;;;;;;4949856;29;20038;-73
2024/02/18 02:30:13;;;;;;;13.85;9.95;;;;;;;;;;4917349;29;20062;-73
2024/02/18 02:32:39;;;;;;;11.52;7.40;;;;;;;;;;4918578;29;20126;-74
2024/02/18 02:35:06;;;;;;;11.05;7.30;;;;;;;;;;4949292;28;20070;-74
2024/02/18 02:37:33;;;;;;;15.73;8.70;;;;;;;;;;4949657;29;20093;-74
2024/02/18 02:39:59;;;;;;;14.93;8.27;;;;;;;;;;4949541;29;20039;-75
2024/02/18 02:42:26;;;;;;;16.83;9.77;;;;;;;;;;4931818;29;20031;-75
2024/02/18 02:44:51;;;;;;;25.80;15.68;;;;;;;;;;4948918;28;20037;-74
2024/02/18 02:47:17;;;;;;;14.98;9.52;;;;;;;;;;4949235;29;20039;-74
2024/02/18 02:49:43;;;;;;;16.60;9.30;;;;;;;;;;4947976;29;20198;-73
2024/02/18 02:52:09;;;;;;;16.08;9.70;;;;;;;;;;4932025;29;20054;-73
2024/02/18 02:54:35;;;;;;;15.48;9.27;;;;;;;;;;4948823;29;20039;-73
2024/02/18 02:57:01;;;;;;;14.73;9.50;;;;;;;;;;4931892;29;20090;-73
2024/02/18 02:59:27;;;;;;;16.90;10.35;;;;;;;;;;4948120;29;20071;-72
2024/02/18 03:01:53;;;;;;;18.88;12.38;;;;;;;;;;4950046;29;20145;-73
2024/02/18 03:04:18;;;;;;;13.52;9.70;;;;;;;;;;4948801;29;20039;-74
2024/02/18 03:06:46;;;;;;;16.23;9.80;;;;;;;;;;4948952;29;20094;-74
2024/02/18 03:09:12;;;;;;;11.45;8.27;;;;;;;;;;4947761;29;20047;-73
2024/02/18 03:11:38;;;;;;;17.35;10.55;;;;;;;;;;4931091;29;20043;-73
2024/02/18 03:14:04;;;;;;;12.98;9.38;;;;;;;;;;4949807;29;20123;-74
2024/02/18 03:16:30;;;;;;;9.77;7.95;;;;;;;;;;4930629;29;20067;-74
2024/02/18 03:18:56;;;;;;;14.32;10.65;;;;;;;;;;4947541;29;20031;-74
2024/02/18 03:21:23;;;;;;;12.70;9.73;;;;;;;;;;4948466;28;20027;-74
2024/02/18 03:23:49;;;;;;;8.43;5.80;;;;;;;;;;4931058;29;20086;-74
2024/02/18 03:26:15;;;;;;;12.27;8.45;;;;;;;;;;4948350;29;20047;-73
2024/02/18 03:28:41;;;;;;;13.68;7.95;;;;;;;;;;4931169;29;20039;-75
2024/02/18 03:31:15;;;;;;;7.18;5.75;;;;;;;;;;4930926;29;20062;-74
2024/02/18 03:33:41;;;;;;;4.80;4.38;;;;;;;;;;4931170;29;20459;-75
2024/02/18 03:36:07;;;;;;;9.70;7.28;;;;;;;;;;4950040;29;20047;-73
2024/02/18 03:38:33;;;;;;;14.10;9.27;;;;;;;;;;4948420;29;20046;-73
2024/02/18 03:40:59;;;;;;;7.88;6.85;;;;;;;;;;4946625;29;20087;-74
2024/02/18 03:43:29;;;;;;;8.75;7.00;;;;;;;;;;4947885;29;20039;-74
2024/02/18 03:45:55;;;;;;;7.07;5.80;;;;;;;;;;4931621;29;20027;-74
2024/02/18 03:48:21;;;;;;;9.38;7.25;;;;;;;;;;4932162;29;20031;-74
2024/02/18 03:50:46;;;;;;;7.13;6.40;;;;;;;;;;4930408;29;20062;-73
2024/02/18 03:53:12;;;;;;;12.05;9.77;;;;;;;;;;4931519;29;20031;-73
2024/02/18 03:55:38;;;;;;;15.88;10.38;;;;;;;;;;4946020;29;20548;-73
2024/02/18 03:58:04;;;;;;;8.18;6.82;;;;;;;;;;4950005;28;20104;-73
2024/02/18 04:00:30;;;;;;;5.78;5.25;;;;;;;;;;4950977;29;20039;-72
2024/02/18 04:02:56;;;;;;;7.40;5.78;;;;;;;;;;4952834;29;20166;-74
2024/02/18 04:05:21;;;;;;;10.57;7.18;;;;;;;;;;4951783;29;20356;-73
2024/02/18 04:07:47;;;;;;;9.55;8.07;;;;;;;;;;4934908;29;20138;-73
2024/02/18 04:10:13;;;;;;;13.82;9.40;;;;;;;;;;4933792;29;20597;-73
2024/02/18 04:12:39;;;;;;;12.15;8.57;;;;;;;;;;4918356;29;20129;-73
2024/02/18 04:15:05;;;;;;;13.25;9.15;;;;;;;;;;4935710;29;20043;-73
2024/02/18 04:17:31;;;;;;;10.32;7.95;;;;;;;;;;4951313;28;20057;-73
2024/02/18 04:19:57;;;;;;;16.13;10.18;;;;;;;;;;4950853;29;20039;-73
2024/02/18 04:22:23;;;;;;;10.90;6.95;;;;;;;;;;4951997;29;20031;-73
2024/02/18 04:24:49;;;;;;;12.52;7.05;;;;;;;;;;4934318;29;20031;-73
2024/02/18 04:27:15;;;;;;;6.55;5.90;;;;;;;;;;4934035;29;20039;-74
2024/02/18 04:29:41;;;;;;;9.20;6.00;;;;;;;;;;4933608;29;20520;-75
2024/02/18 04:32:07;;;;;;;6.10;5.50;;;;;;;;;;4952407;29;20049;-74
2024/02/18 04:34:32;;;;;;;5.45;4.90;;;;;;;;;;4951155;29;20038;-74
2024/02/18 04:36:59;;;;;;;7.10;6.22;;;;;;;;;;4933214;29;20859;-74
2024/02/18 04:39:25;;;;;;;4.88;4.20;;;;;;;;;;4916306;29;20047;-73
2024/02/18 04:41:51;;;;;;;15.15;8.63;;;;;;;;;;4951226;29;20035;-73
2024/02/18 04:44:17;;;;;;;10.73;7.80;;;;;;;;;;4952383;29;20047;-73
2024/02/18 04:46:43;;;;;;;13.15;7.40;;;;;;;;;;4950989;29;20035;-73
2024/02/18 04:49:09;;;;;;;12.48;6.75;;;;;;;;;;4932900;29;20106;-73
2024/02/18 04:51:34;;;;;;;10.60;6.53;;;;;;;;;;4951458;29;20035;-73
2024/02/18 04:54:00;;;;;;;11.45;8.10;;;;;;;;;;4951050;28;20049;-73
2024/02/18 04:56:26;;;;;;;12.00;7.43;;;;;;;;;;4951296;29;20095;-72
2024/02/18 04:58:52;;;;;;;12.23;7.75;;;;;;;;;;4949860;29;20478;-72
2024/02/18 05:01:18;;;;;;;9.75;7.15;;;;;;;;;;4934210;29;20095;-72
2024/02/18 05:03:44;;;;;;;11.27;6.38;;;;;;;;;;4917388;28;20038;-72
2024/02/18 05:06:10;;;;;;;13.57;7.97;;;;;;;;;;4934951;29;20122;-72
2024/02/18 05:08:35;;;;;;;19.63;10.07;;;;;;;;;;4949128;28;20042;-73
2024/02/18 05:11:02;;;;;;;8.32;6.13;;;;;;;;;;4933773;29;20479;-72
2024/02/18 05:13:28;;;;;;;17.38;7.78;;;;;;;;;;4950380;28;20039;-73
2024/02/18 05:15:53;;;;;;;10.52;7.25;;;;;;;;;;4950746;29;20035;-73
2024/02/18 05:18:20;;;;;;;14.27;8.02;;;;;;;;;;4950540;29;20046;-73
2024/02/18 05:20:46;;;;;;;12.65;8.20;;;;;;;;;;4930511;29;20123;-73
2024/02/18 05:23:12;;;;;;;12.85;6.63;;;;;;;;;;4934210;29;20035;-73
2024/02/18 05:25:41;;;;;;;7.72;5.53;;;;;;;;;;4950532;29;20027;-73
2024/02/18 05:28:07;;;;;;;13.35;7.45;;;;;;;;;;4934150;29;20050;-74
2024/02/18 05:30:32;;;;;;;19.90;7.03;;;;;;;;;;4949721;28;20047;-73
2024/02/18 05:32:58;;;;;;;6.95;3.50;;;;;;;;;;4932820;29;20412;-72
2024/02/18 05:35:24;;;;;;;7.85;6.15;;;;;;;;;;4950472;29;20035;-73
2024/02/18 05:37:51;;;;;;;4.78;4.32;;;;;;;;;;4917216;29;20031;-72
2024/02/18 05:40:16;;;;;;;10.57;7.28;;;;;;;;;;4949419;29;20063;-72
2024/02/18 05:42:44;;;;;;;4.70;4.25;;;;;;;;;;4949870;28;20097;-72
2024/02/18 05:45:10;;;;;;;5.50;4.43;;;;;;;;;;4932630;29;20031;-72
2024/02/18 05:47:36;;;;;;;4.03;3.83;;;;;;;;;;4931639;29;20074;-72
2024/02/18 05:50:02;;;;;;;3.80;2.65;;;;;;;;;;4915061;29;20770;-72
2024/02/18 05:52:30;;;;;;;6.35;5.47;;;;;;;;;;4916445;29;20408;-71
2024/02/18 05:54:56;;;;;;;3.58;3.28;;;;;;;;;;4932064;29;20032;-72
2024/02/18 05:57:22;;;;;;;6.60;5.88;;;;;;;;;;4948335;28;20030;-71
2024/02/18 05:59:47;;;;;;;5.43;3.58;;;;;;;;;;4947982;28;20083;-71
2024/02/18 06:02:13;;;;;;;6.53;5.65;;;;;;;;;;4916066;29;20042;-73
2024/02/18 06:04:39;;;;;;;7.28;4.95;;;;;;;;;;4948706;28;20480;-72
2024/02/18 06:07:07;;;;;;;6.00;4.65;;;;;;;;;;4931791;29;20043;-71
2024/02/18 06:09:33;;;;;;;2.42;2.33;;;;;;;;;;4930392;28;20204;-71
2024/02/18 06:12:00;;;;;;;5.90;4.85;;;;;;;;;;4949934;29;20155;-72
2024/02/18 06:14:26;;;;;;;5.68;5.03;;;;;;;;;;4947101;29;20038;-70
2024/02/18 06:16:52;;;;;;;5.47;4.97;;;;;;;;;;4948080;29;20491;-71
2024/02/18 06:19:19;;;;;;;6.72;4.43;;;;;;;;;;4946874;28;20042;-71
2024/02/18 06:21:48;;;;;;;5.97;5.05;;;;;;;;;;4946833;28;20515;-70
2024/02/18 06:24:13;;;;;;;4.70;2.95;;;;;;;;;;4929433;29;20790;-71
2024/02/18 06:26:42;;;;;;;4.35;3.95;;;;;;;;;;4932292;29;20101;-71
2024/02/18 06:29:08;;;;;;;2.05;1.95;;;;;;;;;;4948553;28;20039;-72
2024/02/18 06:31:34;;;;;;;2.95;2.72;;;;;;;;;;4948663;28;20173;-71
2024/02/18 06:34:00;;;;;;;5.85;4.10;;;;;;;;;;4948632;29;20137;-71
2024/02/18 06:36:27;;;;;;;4.47;3.15;;;;;;;;;;4932276;28;20046;-71
2024/02/18 06:38:53;;;;;;;3.45;3.15;;;;;;;;;;4948755;28;20031;-71
2024/02/18 06:41:19;;;;;;;2.75;2.42;;;;;;;;;;4930218;29;20044;-71
2024/02/18 06:43:44;;;;;;;2.63;2.50;;;;;;;;;;4922794;29;20031;-70
2024/02/18 06:46:10;;;;;;;2.22;2.13;;;;;;;;;;4911760;29;20074;-71
2024/02/18 06:48:36;;;;;;;2.47;2.33;;;;;;;;;;4904496;29;20032;-70
2024/02/18 06:51:02;;;;;;;3.20;3.00;;;;;;;;;;4927355;29;20203;-69
2024/02/18 06:53:28;;;;;;;3.30;3.10;;;;;;;;;;4918314;29;20027;-70
2024/02/18 06:55:54;;;;;;;3.58;3.20;;;;;;;;;;4909009;29;20091;-71
2024/02/18 06:58:20;;;;;;;3.67;3.35;;;;;;;;;;4928035;29;20416;-71
2024/02/18 07:00:46;;;;;;;4.60;3.40;;;;;;;;;;4911479;29;20121;-71
2024/02/18 07:03:11;;;;;;;3.47;3.13;;;;;;;;;;4915923;29;20560;-73
2024/02/18 07:05:37;;;;;;;3.45;2.55;;;;;;;;;;4935587;29;20046;-69
2024/02/18 07:08:05;;;;;;;4.20;3.90;;;;;;;;;;4914207;29;20122;-70
2024/02/18 07:10:31;;;;;;;3.35;3.15;;;;;;;;;;4906827;29;20060;-69
2024/02/18 07:12:59;;;;;;;3.78;3.47;;;;;;;;;;4888392;29;20037;-70
2024/02/18 07:15:25;;;;;;;5.28;4.07;;;;;;;;;;4876303;29;20052;-69
2024/02/18 07:17:51;;;;;;;3.05;2.85;;;;;;;;;;4875468;29;20041;-69
2024/02/18 07:20:17;;;;;;;2.53;2.42;;;;;;;;;;4887753;29;20135;-69
2024/02/18 07:22:44;;;;;;;4.32;3.97;;;;;;;;;;4888276;29;20505;-70
2024/02/18 07:25:10;;;;;;;3.25;2.92;;;;;;;;;;4891173;29;20063;-70
2024/02/18 07:27:36;;;;;;;3.35;2.55;;;;;;;;;;4883637;29;20474;-70
2024/02/18 07:30:03;;;;;;;2.40;2.30;;;;;;;;;;4871539;29;20076;-69
2024/02/18 07:32:29;;;;;;;2.13;2.03;;;;;;;;;;4876542;29;20041;-69
2024/02/18 07:34:55;;;;;;;2.50;2.30;;;;;;;;;;4882327;29;20409;-69
2024/02/18 07:37:21;;;;;;;1.73;1.67;;;;;;;;;;4876632;29;20148;-71
2024/02/18 07:39:46;;;;;;;4.63;1.95;;;;;;;;;;4876779;29;20049;-70
2024/02/18 07:42:12;;;;;;;1.70;1.65;;;;;;;;;;4875934;29;20128;-69
2024/02/18 07:44:42;;;;;;;1.75;1.65;;;;;;;;;;4877366;29;20045;-72
2024/02/18 07:47:09;;;;;;;1.88;1.77;;;;;;;;;;4877453;29;20218;-71
2024/02/18 07:49:35;;;;;;;1.80;1.70;;;;;;;;;;4876186;29;20049;-70
2024/02/18 07:52:01;;;;;;;1.48;1.42;;;;;;;;;;4888354;29;20590;-70
2024/02/18 07:54:27;;;;;;;1.90;1.90;;;;;;;;;;4893476;29;20036;-71
2024/02/18 07:56:52;;;;;;;2.00;1.90;;;;;;;;;;4893822;29;20115;-71
2024/02/18 07:59:21;;;;;;;1.80;1.70;;;;;;;;;;4893279;29;20045;-70
2024/02/18 08:01:48;;;;;;;2.13;2.03;;;;;;;;;;4890844;29;20516;-70
2024/02/18 08:04:14;;;;;;;1.83;1.83;;;;;;;;;;4893404;29;20324;-71
2024/02/18 08:06:40;;;;;;;2.10;2.03;;;;;;;;;;4892105;29;20040;-71
2024/02/18 08:09:07;;;;;;;2.53;2.30;;;;;;;;;;4890359;29;20083;-71
2024/02/18 08:11:32;;;;;;;2.50;2.40;;;;;;;;;;4897133;29;20063;-69
2024/02/18 08:13:58;;;;;;;2.70;2.55;;;;;;;;;;4912702;29;20036;-70
2024/02/18 08:16:26;;;;;;;2.25;2.15;;;;;;;;;;4910402;29;20040;-70
2024/02/18 08:18:55;;;;;;;2.00;1.90;;;;;;;;;;4909175;29;20047;-70
2024/02/18 08:21:21;;;;;;;6.47;2.70;;;;;;;;;;4909683;29;20481;-69
2024/02/18 08:23:47;;;;;;;2.58;2.38;;;;;;;;;;4907372;29;20040;-70
2024/02/18 08:26:22;;;;;;;2.50;2.40;;;;;;;;;;4895371;29;20115;-69
2024/02/18 08:31:33;;;;;;;2.35;2.25;;;;;;;;;;4910541;29;20059;-69
2024/02/18 08:34:01;;;;;;;2.28;2.17;;;;;;;;;;4913685;29;20044;-70
2024/02/18 08:36:27;;;;;;;2.80;2.33;;;;;;;;;;4897319;29;20175;-70
2024/02/18 08:38:54;;;;;;;2.20;2.10;;;;;;;;;;4911997;28;20794;-67
2024/02/18 08:41:20;;;;;;;1.70;1.60;;;;;;;;;;4929066;29;20050;-68
2024/02/18 08:43:52;;;;;;;2.17;2.08;;;;;;;;;;4931146;29;20035;-69
2024/02/18 08:46:18;;;;;;;2.50;2.40;;;;;;;;;;4931220;29;20122;-70
2024/02/18 08:48:44;;;;;;;2.40;2.25;;;;;;;;;;4930677;29;20488;-69
2024/02/18 08:51:10;;;;;;;2.47;2.28;;;;;;;;;;4929875;28;20062;-71
2024/02/18 08:53:38;;;;;;;2.25;2.10;;;;;;;;;;4931454;29;20043;-71
2024/02/18 08:56:07;;;;;;;2.30;2.10;;;;;;;;;;4932755;29;20039;-70
2024/02/18 08:58:34;;;;;;;2.30;2.20;;;;;;;;;;4915309;29;20039;-71
2024/02/18 09:01:00;;;;;;;2.00;1.90;;;;;;;;;;4931805;28;20052;-71
2024/02/18 09:03:27;;;;;;;2.05;1.90;;;;;;;;;;4933000;29;20420;-69
2024/02/18 09:05:53;;;;;;;2.17;2.08;;;;;;;;;;4945834;29;20689;-69
2024/02/18 09:08:20;;;;;;;1.83;1.83;;;;;;;;;;4928220;29;20043;-69
2024/02/18 09:10:45;;;;;;;6.07;2.22;;;;;;;;;;4942127;28;20157;-69
2024/02/18 09:13:11;;;;;;;2.92;1.70;;;;;;;;;;4934302;29;20540;-69
2024/02/18 09:15:37;;;;;;;2.90;2.10;;;;;;;;;;4942094;29;20027;-69
2024/02/18 09:18:03;;;;;;;2.53;2.40;;;;;;;;;;4941825;29;20134;-69
2024/02/18 09:20:29;;;;;;;2.45;2.33;;;;;;;;;;4914330;29;20600;-69
2024/02/18 09:22:55;;;;;;;3.83;2.10;;;;;;;;;;4943759;28;20044;-68
2024/02/18 09:25:21;;;;;;;3.15;2.22;;;;;;;;;;4947788;29;20130;-69
2024/02/18 09:27:47;;;;;;;2.42;2.33;;;;;;;;;;4950294;29;20118;-68
2024/02/18 09:30:14;;;;;;;1.65;1.65;;;;;;;;;;4932155;28;20051;-68
2024/02/18 09:32:41;;;;;;;2.17;2.08;;;;;;;;;;4948742;29;20039;-68
2024/02/18 09:35:07;;;;;;;1.60;1.60;;;;;;;;;;4947938;29;20106;-68
2024/02/18 09:37:33;;;;;;;2.95;2.08;;;;;;;;;;4933182;29;20047;-67
2024/02/18 09:39:59;;;;;;;2.25;2.13;;;;;;;;;;4930698;29;20094;-68
2024/02/18 09:42:25;;;;;;;4.65;2.03;;;;;;;;;;4931843;29;20134;-68
2024/02/18 09:44:51;;;;;;;1.52;1.52;;;;;;;;;;4916516;29;20106;-69
2024/02/18 09:47:17;;;;;;;2.17;2.08;;;;;;;;;;4950381;29;20127;-69
2024/02/18 09:49:43;;;;;;;1.77;1.75;;;;;;;;;;4931806;28;20122;-69
2024/02/18 09:52:09;;;;;;;4.35;2.22;;;;;;;;;;4933125;29;20495;-67
2024/02/18 09:54:35;;;;;;;1.80;1.70;;;;;;;;;;4950119;28;20106;-71
2024/02/18 09:57:01;;;;;;;1.83;1.70;;;;;;;;;;4949878;29;20174;-69
2024/02/18 10:02:12;;;;;;;2.22;1.50;;;;;;;;;;4947950;29;20486;-69
2024/02/18 10:04:38;;;;;;;1.90;1.80;;;;;;;;;;4927844;29;20663;-70
2024/02/18 10:07:04;;;;;;;1.75;1.75;;;;;;;;;;4932258;28;20023;-71
2024/02/18 10:09:31;;;;;;;1.77;1.77;;;;;;;;;;4942501;29;20428;-71
2024/02/18 10:11:57;;;;;;;4.88;1.67;;;;;;;;;;4949386;29;20388;-70
2024/02/18 10:14:28;;;;;;;1.83;1.80;;;;;;;;;;4946294;28;20082;-69
2024/02/18 10:16:54;;;;;;;2.00;1.90;;;;;;;;;;4941820;28;20046;-70
2024/02/18 10:19:24;;;;;;;2.05;1.40;;;;;;;;;;4947188;29;20047;-69
2024/02/18 10:21:50;;;;;;;1.90;1.77;;;;;;;;;;4947855;29;20035;-71
2024/02/18 10:24:19;;;;;;;3.60;1.95;;;;;;;;;;4946607;29;20057;-71
2024/02/18 10:26:45;;;;;;;3.13;2.10;;;;;;;;;;4945996;29;20086;-70
2024/02/18 10:29:12;;;;;;;2.30;1.98;;;;;;;;;;4948774;28;20063;-70
2024/02/18 10:31:38;;;;;;;1.60;1.50;;;;;;;;;;4931944;29;20031;-70
2024/02/18 10:34:05;;;;;;;1.95;1.73;;;;;;;;;;4932116;29;20054;-69
2024/02/18 10:36:31;;;;;;;1.98;1.88;;;;;;;;;;4949415;29;20043;-70
2024/02/18 10:38:58;;;;;;;1.52;1.45;;;;;;;;;;4930937;28;20035;-70
2024/02/18 10:41:27;;;;;;;2.30;2.20;;;;;;;;;;4916180;29;20077;-70
2024/02/18 10:43:56;;;;;;;2.13;2.03;;;;;;;;;;4931760;29;20416;-69
2024/02/18 10:46:23;;;;;;;2.15;2.05;;;;;;;;;;4950211;29;20035;-71
2024/02/18 10:48:50;;;;;;;2.22;2.03;;;;;;;;;;4950114;29;20038;-71
2024/02/18 10:51:16;;;;;;;2.58;1.90;;;;;;;;;;4913674;29;20512;-71
2024/02/18 10:53:46;;;;;;;2.47;2.38;;;;;;;;;;4898474;29;20118;-71
2024/02/18 10:56:14;;;;;;;2.20;2.10;;;;;;;;;;4931391;29;20542;-71
2024/02/18 10:58:53;;;;;;;2.03;1.92;;;;;;;;;;4914631;29;20237;-71
2024/02/18 11:01:19;;;;;;;4.05;1.92;;;;;;;;;;4950049;29;20658;-71
2024/02/18 11:03:47;;;;;;;2.03;1.92;;;;;;;;;;4967035;28;20121;-71
2024/02/18 11:06:13;;;;;;;2.17;2.08;;;;;;;;;;4969422;28;20046;-71
2024/02/18 11:08:40;;;;;;;2.20;2.10;;;;;;;;;;4969782;28;20050;-71
2024/02/18 11:11:07;;;;;;;2.83;2.63;;;;;;;;;;4951476;28;20166;-71
2024/02/18 11:13:52;;;;;;;2.53;2.42;;;;;;;;;;4969406;28;20125;-71
2024/02/18 11:16:19;;;;;;;2.15;2.05;;;;;;;;;;4952401;28;20039;-71
2024/02/18 11:18:44;;;;;;;2.60;2.50;;;;;;;;;;4951967;28;20723;-70
2024/02/18 11:21:13;;;;;;;2.38;2.22;;;;;;;;;;4968786;28;20062;-70
2024/02/18 11:24:05;;;;;;;1.30;1.30;;;;;;;;;;4952248;28;20038;-70
2024/02/18 11:26:31;;;;;;;2.22;2.13;;;;;;;;;;4966947;28;20053;-71
2024/02/18 11:29:01;;;;;;;6.22;2.65;;;;;;;;;;4934914;28;20039;-71
2024/02/18 11:31:27;;;;;;;2.30;2.20;;;;;;;;;;4920683;28;20038;-71
2024/02/18 11:33:53;;;;;;;1.80;1.70;;;;;;;;;;4969084;28;20133;-70
2024/02/18 11:36:19;;;;;;;1.98;1.88;;;;;;;;;;4969681;28;20070;-70
2024/02/18 11:38:46;;;;;;;2.45;2.25;;;;;;;;;;4935880;28;20499;-70
2024/02/18 11:41:16;;;;;;;1.65;1.65;;;;;;;;;;4951473;28;20039;-71
2024/02/18 11:43:42;;;;;;;2.65;2.45;;;;;;;;;;4952140;28;20414;-71
2024/02/18 11:46:40;;;;;;;2.17;1.73;;;;;;;;;;4969155;28;20034;-71
2024/02/18 11:49:06;;;;;;;2.13;2.03;;;;;;;;;;4935333;28;20058;-71
2024/02/18 11:51:33;;;;;;;2.25;2.05;;;;;;;;;;4969431;28;20045;-71
2024/02/18 11:53:59;;;;;;;2.90;2.30;;;;;;;;;;4951644;28;20034;-70
2024/02/18 11:56:25;;;;;;;2.38;2.17;;;;;;;;;;4969154;28;20101;-70
2024/02/18 11:58:51;;;;;;;2.33;2.13;;;;;;;;;;4968060;28;20534;-70
2024/02/18 12:01:19;;;;;;;1.48;1.45;;;;;;;;;;4969179;28;20039;-71
2024/02/18 12:03:48;;;;;;;3.13;1.92;;;;;;;;;;4951744;28;20714;-70
2024/02/18 12:06:14;;;;;;;3.65;2.00;;;;;;;;;;4951916;28;20033;-69
2024/02/18 12:08:40;;;;;;;1.90;1.80;;;;;;;;;;4969550;28;20039;-70
2024/02/18 12:11:06;;;;;;;1.40;1.40;;;;;;;;;;4947356;28;20059;-70
2024/02/18 12:13:32;;;;;;;1.80;1.80;;;;;;;;;;4949891;28;20527;-70
2024/02/18 12:15:59;;;;;;;2.58;1.38;;;;;;;;;;4948740;29;20075;-70
2024/02/18 12:18:25;;;;;;;2.55;2.00;;;;;;;;;;4949844;28;20055;-70
2024/02/18 12:20:52;;;;;;;2.10;2.00;;;;;;;;;;4951339;28;20043;-71
2024/02/18 12:23:18;;;;;;;2.00;1.90;;;;;;;;;;4952194;29;20468;-70
2024/02/18 12:25:45;;;;;;;1.60;1.60;;;;;;;;;;4953283;29;20491;-70
2024/02/18 12:28:11;;;;;;;2.05;1.95;;;;;;;;;;4953070;29;20039;-71
2024/02/18 12:30:40;;;;;;;2.60;2.00;;;;;;;;;;4946652;28;20047;-72
2024/02/18 12:33:06;;;;;;;2.38;2.17;;;;;;;;;;4934027;29;20043;-70
2024/02/18 12:35:33;;;;;;;2.00;1.90;;;;;;;;;;4929232;29;20495;-70
2024/02/18 12:37:59;;;;;;;1.90;1.80;;;;;;;;;;4933473;29;20583;-70
2024/02/18 12:40:25;;;;;;;2.00;1.90;;;;;;;;;;4933029;28;20225;-71
2024/02/18 12:42:51;;;;;;;2.55;2.13;;;;;;;;;;4933611;29;20067;-71
2024/02/18 12:45:23;;;;;;;1.70;1.60;;;;;;;;;;4933550;29;20475;-70
2024/02/18 12:47:50;;;;;;;2.50;2.28;;;;;;;;;;4932594;29;20040;-71
2024/02/18 12:50:16;;;;;;;2.15;2.05;;;;;;;;;;4911486;29;20048;-72
2024/02/18 12:52:42;;;;;;;1.55;1.55;;;;;;;;;;4911408;29;20420;-72
2024/02/18 12:55:08;;;;;;;2.70;1.85;;;;;;;;;;4927547;29;20032;-71
2024/02/18 12:57:34;;;;;;;2.10;1.95;;;;;;;;;;4927719;29;20061;-71
2024/02/18 13:00:00;;;;;;;1.52;1.52;;;;;;;;;;4899953;29;20648;-71
2024/02/18 13:02:26;;;;;;;1.35;1.30;;;;;;;;;;4907164;29;20604;-70
2024/02/18 13:04:55;;;;;;;1.50;1.50;;;;;;;;;;4908552;29;20539;-72
2024/02/18 13:07:23;;;;;;;1.77;1.70;;;;;;;;;;4908497;29;20036;-72
2024/02/18 13:09:49;;;;;;;1.67;1.58;;;;;;;;;;4915847;28;20720;-71
2024/02/18 13:12:15;;;;;;;1.88;1.77;;;;;;;;;;4916062;29;20681;-71
2024/02/18 13:14:41;;;;;;;4.05;1.90;;;;;;;;;;4946623;29;20129;-71
2024/02/18 13:17:07;;;;;;;1.50;1.50;;;;;;;;;;4949589;29;20507;-72
2024/02/18 13:19:33;;;;;;;1.58;1.58;;;;;;;;;;4930943;29;20083;-72
2024/02/18 13:21:59;;;;;;;2.10;1.40;;;;;;;;;;4947478;29;20503;-72
2024/02/18 13:24:25;;;;;;;1.50;1.50;;;;;;;;;;4949433;29;20031;-73
2024/02/18 13:26:52;;;;;;;1.70;1.70;;;;;;;;;;4948998;29;20094;-72
2024/02/18 13:29:18;;;;;;;1.10;1.10;;;;;;;;;;4948022;28;20475;-72
2024/02/18 13:31:44;;;;;;;1.80;1.70;;;;;;;;;;4932523;29;20047;-71
2024/02/18 13:34:10;;;;;;;2.33;1.40;;;;;;;;;;4949271;29;20031;-72
2024/02/18 13:36:39;;;;;;;1.40;1.40;;;;;;;;;;4931481;29;20039;-71
2024/02/18 13:39:06;;;;;;;1.67;1.58;;;;;;;;;;4931169;29;20114;-72
2024/02/18 13:41:32;;;;;;;1.80;1.70;;;;;;;;;;4931646;29;20057;-71
2024/02/18 13:43:57;;;;;;;1.85;1.80;;;;;;;;;;4931637;29;20054;-71
2024/02/18 13:46:24;;;;;;;2.45;2.25;;;;;;;;;;4935669;28;20066;-71
2024/02/18 13:48:50;;;;;;;1.65;1.55;;;;;;;;;;4947901;29;20039;-72
2024/02/18 13:51:16;;;;;;;2.00;1.90;;;;;;;;;;4935548;28;20463;-70
2024/02/18 13:53:43;;;;;;;2.00;1.90;;;;;;;;;;4947169;29;20035;-70
2024/02/18 13:56:09;;;;;;;1.85;1.75;;;;;;;;;;4948828;29;20054;-71
2024/02/18 13:58:35;;;;;;;2.13;2.03;;;;;;;;;;4915322;29;20039;-70
2024/02/18 14:01:01;;;;;;;1.67;1.67;;;;;;;;;;4930676;29;20046;-71
2024/02/18 14:03:31;;;;;;;2.58;1.48;;;;;;;;;;4953764;28;20054;-71
2024/02/18 14:05:56;;;;;;;1.92;1.83;;;;;;;;;;4949052;29;20416;-71
2024/02/18 14:08:22;;;;;;;2.17;2.08;;;;;;;;;;4948289;29;20143;-71
2024/02/18 14:10:48;;;;;;;1.73;1.63;;;;;;;;;;4920335;29;20138;-71
2024/02/18 14:13:15;;;;;;;1.65;1.65;;;;;;;;;;4917713;29;20046;-70
2024/02/18 14:15:41;;;;;;;2.35;2.22;;;;;;;;;;4923197;29;20031;-73
2024/02/18 14:18:07;;;;;;;6.30;2.40;;;;;;;;;;4913653;29;20040;-72
2024/02/18 14:20:35;;;;;;;1.67;1.58;;;;;;;;;;4937323;29;20047;-70
2024/02/18 14:23:01;;;;;;;2.50;2.30;;;;;;;;;;4933485;29;20046;-71
2024/02/18 14:25:30;;;;;;;4.25;3.63;;;;;;;;;;4943850;29;20036;-70
2024/02/18 14:27:56;;;;;;;3.80;1.70;;;;;;;;;;4912469;29;20032;-71
2024/02/18 14:30:22;;;;;;;2.25;2.15;;;;;;;;;;4923048;29;20058;-71
2024/02/18 14:32:47;;;;;;;1.60;1.60;;;;;;;;;;4949380;29;20516;-70
2024/02/18 14:35:14;;;;;;;1.75;1.60;;;;;;;;;;4949931;29;20102;-72
2024/02/18 14:37:40;;;;;;;1.45;1.45;;;;;;;;;;4915155;29;20290;-71
2024/02/18 14:40:09;;;;;;;1.40;1.30;;;;;;;;;;4937730;29;20044;-70